createdAt,value
2018-12-13T00:00:13.108Z,1018.3
2018-12-13T00:00:39.222Z,1018.29
2018-12-13T00:01:05.331Z,1018.33
2018-12-13T00:01:31.449Z,1018.28
2018-12-13T00:01:57.553Z,1018.25
2018-12-13T00:02:23.668Z,1018.26
2018-12-13T00:02:49.772Z,1018.24
2018-12-13T00:03:15.878Z,1018.29
2018-12-13T00:03:41.978Z,1018.29
2018-12-13T00:04:08.105Z,1018.22
2018-12-13T00:04:34.218Z,1018.28
2018-12-13T00:05:00.317Z,1018.24
2018-12-13T00:05:26.437Z,1018.27
2018-12-13T00:05:52.537Z,1018.29
2018-12-13T00:06:18.646Z,1018.29
2018-12-13T00:06:44.771Z,1018.29
2018-12-13T00:07:10.877Z,1018.19
2018-12-13T00:07:37.053Z,1018.2
2018-12-13T00:08:03.166Z,1018.22
2018-12-13T00:08:29.266Z,1018.22
2018-12-13T00:08:55.378Z,1018.2
2018-12-13T00:09:21.489Z,1018.27
2018-12-13T00:09:47.612Z,1018.22
2018-12-13T00:10:13.787Z,1018.17
2018-12-13T00:10:39.887Z,1018.19
2018-12-13T00:11:06.001Z,1018.16
2018-12-13T00:11:32.127Z,1018.17
2018-12-13T00:11:58.250Z,1018.18
2018-12-13T00:12:24.361Z,1018.15
2018-12-13T00:12:50.472Z,1018.17
2018-12-13T00:13:16.573Z,1018.2
2018-12-13T00:13:42.703Z,1018.18
2018-12-13T00:14:08.827Z,1018.13
2018-12-13T00:14:34.932Z,1018.14
2018-12-13T00:15:01.055Z,1018.16
2018-12-13T00:15:27.176Z,1018.14
2018-12-13T00:15:53.281Z,1018.18
2018-12-13T00:16:19.409Z,1018.19
2018-12-13T00:16:45.536Z,1018.15
2018-12-13T00:17:11.664Z,1018.13
2018-12-13T00:17:37.872Z,1018.15
2018-12-13T00:18:03.927Z,1018.13
2018-12-13T00:18:30.035Z,1018.14
2018-12-13T00:18:56.139Z,1018.14
2018-12-13T00:19:22.244Z,1018.13
2018-12-13T00:19:48.347Z,1018.11
2018-12-13T00:20:14.454Z,1018.14
2018-12-13T00:20:40.565Z,1018.16
2018-12-13T00:21:06.677Z,1018.14
2018-12-13T00:21:32.788Z,1018.12
2018-12-13T00:21:58.919Z,1018.09
2018-12-13T00:22:25.026Z,1018.13
2018-12-13T00:22:51.128Z,1018.13
2018-12-13T00:23:17.251Z,1018.16
2018-12-13T00:23:43.350Z,1018.16
2018-12-13T00:24:09.457Z,1018.19
2018-12-13T00:24:35.579Z,1018.17
2018-12-13T00:25:01.683Z,1018.18
2018-12-13T00:25:27.823Z,1018.21
2018-12-13T00:25:53.933Z,1018.17
2018-12-13T00:26:20.067Z,1018.15
2018-12-13T00:26:46.170Z,1018.18
2018-12-13T00:27:12.281Z,1018.2
2018-12-13T00:27:38.416Z,1018.18
2018-12-13T00:28:04.523Z,1018.2
2018-12-13T00:28:30.662Z,1018.18
2018-12-13T00:28:56.826Z,1018.18
2018-12-13T00:29:22.914Z,1018.15
2018-12-13T00:29:49.058Z,1018.18
2018-12-13T00:30:15.159Z,1018.19
2018-12-13T00:30:41.290Z,1018.19
2018-12-13T00:31:07.382Z,1018.2
2018-12-13T00:31:33.525Z,1018.19
2018-12-13T00:31:59.638Z,1018.16
2018-12-13T00:32:25.751Z,1018.19
2018-12-13T00:32:51.847Z,1018.19
2018-12-13T00:33:17.997Z,1018.19
2018-12-13T00:33:44.118Z,1018.2
2018-12-13T00:34:10.257Z,1018.19
2018-12-13T00:34:36.366Z,1018.14
2018-12-13T00:35:02.482Z,1018.15
2018-12-13T00:35:28.626Z,1018.16
2018-12-13T00:35:54.760Z,1018.18
2018-12-13T00:36:20.855Z,1018.16
2018-12-13T00:36:47.957Z,1018.15
2018-12-13T00:37:14.082Z,1018.16
2018-12-13T00:37:40.235Z,1018.18
2018-12-13T00:38:06.341Z,1018.18
2018-12-13T00:38:32.447Z,1018.17
2018-12-13T00:38:58.548Z,1018.17
2018-12-13T00:39:24.650Z,1018.2
2018-12-13T00:39:50.753Z,1018.17
2018-12-13T00:40:16.916Z,1018.17
2018-12-13T00:40:43.021Z,1018.19
2018-12-13T00:41:09.134Z,1018.12
2018-12-13T00:41:35.234Z,1018.12
2018-12-13T00:42:01.394Z,1018.13
2018-12-13T00:42:27.500Z,1018.11
2018-12-13T00:42:53.607Z,1018.14
2018-12-13T00:43:19.709Z,1018.13
2018-12-13T00:43:45.840Z,1018.11
2018-12-13T00:44:11.940Z,1018.14
2018-12-13T00:44:38.050Z,1018.12
2018-12-13T00:45:04.152Z,1018.09
2018-12-13T00:45:30.259Z,1018.12
2018-12-13T00:45:56.393Z,1018.08
2018-12-13T00:46:22.500Z,1018.06
2018-12-13T00:46:48.599Z,1018.09
2018-12-13T00:47:14.733Z,1018.12
2018-12-13T00:47:40.834Z,1018.12
2018-12-13T00:48:06.935Z,1018.09
2018-12-13T00:48:33.071Z,1018.07
2018-12-13T00:48:59.203Z,1018.09
2018-12-13T00:49:25.333Z,1018.06
2018-12-13T00:49:51.437Z,1018.1
2018-12-13T00:50:17.565Z,1018.14
2018-12-13T00:50:43.673Z,1018.07
2018-12-13T00:51:09.774Z,1018.08
2018-12-13T00:51:35.887Z,1018.1
2018-12-13T00:52:02.018Z,1018.12
2018-12-13T00:52:28.123Z,1018.12
2018-12-13T00:52:54.228Z,1018.08
2018-12-13T00:53:20.338Z,1018.1
2018-12-13T00:53:46.438Z,1018.09
2018-12-13T00:54:12.548Z,1018.09
2018-12-13T00:54:38.655Z,1018.07
2018-12-13T00:55:04.765Z,1018.07
2018-12-13T00:55:30.863Z,1018.1
2018-12-13T00:55:56.967Z,1018.07
2018-12-13T00:56:23.068Z,1018.1
2018-12-13T00:56:49.168Z,1018.09
2018-12-13T00:57:15.280Z,1018.06
2018-12-13T00:57:41.382Z,1018.1
2018-12-13T00:58:07.481Z,1018.05
2018-12-13T00:58:33.581Z,1018.05
2018-12-13T00:58:59.690Z,1018.05
2018-12-13T00:59:25.788Z,1018.05
2018-12-13T00:59:51.897Z,1018.04
2018-12-13T01:00:18.005Z,1018.08
2018-12-13T01:00:44.112Z,1018.06
2018-12-13T01:01:10.219Z,1018.06
2018-12-13T01:01:36.316Z,1018.09
2018-12-13T01:02:02.423Z,1018.06
2018-12-13T01:02:28.525Z,1018.04
2018-12-13T01:02:54.633Z,1018.04
2018-12-13T01:03:20.734Z,1018
2018-12-13T01:03:46.844Z,1018.04
2018-12-13T01:04:12.951Z,1018.05
2018-12-13T01:04:39.086Z,1017.97
2018-12-13T01:05:05.193Z,1018
2018-12-13T01:05:31.306Z,1018.05
2018-12-13T01:05:57.431Z,1018.03
2018-12-13T01:06:23.562Z,1018.05
2018-12-13T01:06:50.662Z,1018.05
2018-12-13T01:07:16.781Z,1018.03
2018-12-13T01:07:42.908Z,1018.02
2018-12-13T01:08:09.007Z,1018.03
2018-12-13T01:08:35.114Z,1018.03
2018-12-13T01:09:01.223Z,1018
2018-12-13T01:09:27.322Z,1017.99
2018-12-13T01:09:53.432Z,1017.99
2018-12-13T01:10:19.538Z,1018.02
2018-12-13T01:10:46.635Z,1017.98
2018-12-13T01:11:12.740Z,1017.97
2018-12-13T01:11:38.844Z,1017.96
2018-12-13T01:12:04.944Z,1017.97
2018-12-13T01:12:31.048Z,1017.95
2018-12-13T01:12:57.151Z,1017.96
2018-12-13T01:13:23.291Z,1017.96
2018-12-13T01:13:49.398Z,1017.99
2018-12-13T01:14:15.503Z,1017.96
2018-12-13T01:14:41.610Z,1017.97
2018-12-13T01:15:07.714Z,1017.99
2018-12-13T01:15:33.819Z,1017.97
2018-12-13T01:15:59.931Z,1017.95
2018-12-13T01:16:26.046Z,1017.93
2018-12-13T01:16:52.148Z,1017.95
2018-12-13T01:17:18.260Z,1017.96
2018-12-13T01:17:44.426Z,1017.93
2018-12-13T01:18:10.476Z,1018
2018-12-13T01:18:36.590Z,1017.94
2018-12-13T01:19:02.694Z,1017.97
2018-12-13T01:19:28.827Z,1017.93
2018-12-13T01:19:54.932Z,1017.94
2018-12-13T01:20:21.061Z,1017.93
2018-12-13T01:20:47.170Z,1017.9
2018-12-13T01:21:13.328Z,1017.93
2018-12-13T01:21:40.394Z,1017.94
2018-12-13T01:22:06.492Z,1017.93
2018-12-13T01:22:32.596Z,1017.94
2018-12-13T01:22:58.708Z,1017.93
2018-12-13T01:23:24.815Z,1017.91
2018-12-13T01:23:50.913Z,1017.94
2018-12-13T01:24:17.049Z,1017.96
2018-12-13T01:24:43.159Z,1017.93
2018-12-13T01:25:09.262Z,1017.94
2018-12-13T01:25:35.370Z,1017.93
2018-12-13T01:26:01.474Z,1017.91
2018-12-13T01:26:27.577Z,1017.92
2018-12-13T01:26:53.682Z,1017.91
2018-12-13T01:27:19.798Z,1017.91
2018-12-13T01:27:45.899Z,1017.91
2018-12-13T01:28:12.034Z,1017.9
2018-12-13T01:28:38.132Z,1017.88
2018-12-13T01:29:04.236Z,1017.84
2018-12-13T01:29:30.343Z,1017.87
2018-12-13T01:29:56.443Z,1017.86
2018-12-13T01:30:22.547Z,1017.84
2018-12-13T01:30:48.684Z,1017.85
2018-12-13T01:31:14.808Z,1017.86
2018-12-13T01:31:40.914Z,1017.84
2018-12-13T01:32:07.016Z,1017.81
2018-12-13T01:32:33.126Z,1017.83
2018-12-13T01:32:59.227Z,1017.83
2018-12-13T01:33:25.327Z,1017.87
2018-12-13T01:33:51.438Z,1017.83
2018-12-13T01:34:17.536Z,1017.82
2018-12-13T01:34:43.643Z,1017.83
2018-12-13T01:35:09.742Z,1017.81
2018-12-13T01:35:35.850Z,1017.82
2018-12-13T01:36:01.982Z,1017.79
2018-12-13T01:36:28.085Z,1017.81
2018-12-13T01:36:55.172Z,1017.81
2018-12-13T01:37:21.309Z,1017.82
2018-12-13T01:37:47.416Z,1017.79
2018-12-13T01:38:13.520Z,1017.8
2018-12-13T01:38:39.630Z,1017.74
2018-12-13T01:39:05.724Z,1017.78
2018-12-13T01:39:31.838Z,1017.8
2018-12-13T01:39:57.939Z,1017.82
2018-12-13T01:40:24.041Z,1017.77
2018-12-13T01:40:50.146Z,1017.78
2018-12-13T01:41:16.256Z,1017.8
2018-12-13T01:41:42.362Z,1017.79
2018-12-13T01:42:08.465Z,1017.83
2018-12-13T01:42:34.575Z,1017.75
2018-12-13T01:43:00.681Z,1017.78
2018-12-13T01:43:26.835Z,1017.8
2018-12-13T01:43:52.876Z,1017.79
2018-12-13T01:44:19.013Z,1017.79
2018-12-13T01:44:45.112Z,1017.81
2018-12-13T01:45:11.219Z,1017.82
2018-12-13T01:45:37.322Z,1017.82
2018-12-13T01:46:03.457Z,1017.81
2018-12-13T01:46:29.565Z,1017.83
2018-12-13T01:46:55.669Z,1017.77
2018-12-13T01:47:21.778Z,1017.79
2018-12-13T01:47:47.884Z,1017.8
2018-12-13T01:48:13.983Z,1017.8
2018-12-13T01:48:40.148Z,1017.79
2018-12-13T01:49:06.282Z,1017.81
2018-12-13T01:49:32.388Z,1017.78
2018-12-13T01:49:58.488Z,1017.82
2018-12-13T01:50:24.594Z,1017.8
2018-12-13T01:50:50.694Z,1017.81
2018-12-13T01:51:16.798Z,1017.78
2018-12-13T01:51:42.908Z,1017.82
2018-12-13T01:52:09.012Z,1017.81
2018-12-13T01:52:35.141Z,1017.75
2018-12-13T01:53:01.244Z,1017.79
2018-12-13T01:53:27.345Z,1017.8
2018-12-13T01:53:53.450Z,1017.76
2018-12-13T01:54:19.559Z,1017.81
2018-12-13T01:54:45.667Z,1017.8
2018-12-13T01:55:11.766Z,1017.78
2018-12-13T01:55:37.901Z,1017.79
2018-12-13T01:56:04.029Z,1017.78
2018-12-13T01:56:30.142Z,1017.73
2018-12-13T01:56:56.237Z,1017.76
2018-12-13T01:57:22.345Z,1017.77
2018-12-13T01:57:48.451Z,1017.75
2018-12-13T01:58:14.557Z,1017.73
2018-12-13T01:58:40.658Z,1017.74
2018-12-13T01:59:06.765Z,1017.76
2018-12-13T01:59:32.882Z,1017.71
2018-12-13T01:59:58.987Z,1017.71
2018-12-13T02:00:25.094Z,1017.76
2018-12-13T02:00:51.194Z,1017.7
2018-12-13T02:01:17.298Z,1017.75
2018-12-13T02:01:43.404Z,1017.74
2018-12-13T02:02:09.504Z,1017.74
2018-12-13T02:02:35.613Z,1017.7
2018-12-13T02:03:01.714Z,1017.74
2018-12-13T02:03:27.824Z,1017.77
2018-12-13T02:03:53.929Z,1017.71
2018-12-13T02:04:20.034Z,1017.76
2018-12-13T02:04:46.137Z,1017.75
2018-12-13T02:05:12.244Z,1017.75
2018-12-13T02:05:38.340Z,1017.75
2018-12-13T02:06:04.451Z,1017.73
2018-12-13T02:06:30.557Z,1017.76
2018-12-13T02:06:58.759Z,1017.74
2018-12-13T02:07:23.758Z,1017.76
2018-12-13T02:07:49.866Z,1017.73
2018-12-13T02:08:15.973Z,1017.73
2018-12-13T02:08:42.078Z,1017.78
2018-12-13T02:09:08.187Z,1017.77
2018-12-13T02:09:34.285Z,1017.72
2018-12-13T02:10:00.395Z,1017.72
2018-12-13T02:10:26.524Z,1017.74
2018-12-13T02:10:52.630Z,1017.72
2018-12-13T02:11:18.734Z,1017.73
2018-12-13T02:11:44.843Z,1017.72
2018-12-13T02:12:10.970Z,1017.7
2018-12-13T02:12:37.099Z,1017.73
2018-12-13T02:13:03.202Z,1017.74
2018-12-13T02:13:29.335Z,1017.72
2018-12-13T02:13:55.431Z,1017.72
2018-12-13T02:14:21.538Z,1017.71
2018-12-13T02:14:47.676Z,1017.73
2018-12-13T02:15:13.778Z,1017.67
2018-12-13T02:15:39.885Z,1017.67
2018-12-13T02:16:05.999Z,1017.69
2018-12-13T02:16:32.102Z,1017.69
2018-12-13T02:16:58.206Z,1017.68
2018-12-13T02:17:24.317Z,1017.69
2018-12-13T02:17:50.420Z,1017.68
2018-12-13T02:18:16.525Z,1017.7
2018-12-13T02:18:42.630Z,1017.69
2018-12-13T02:19:08.793Z,1017.71
2018-12-13T02:19:34.898Z,1017.71
2018-12-13T02:20:01.004Z,1017.68
2018-12-13T02:20:27.113Z,1017.69
2018-12-13T02:20:53.213Z,1017.69
2018-12-13T02:21:19.336Z,1017.69
2018-12-13T02:21:45.441Z,1017.66
2018-12-13T02:22:11.549Z,1017.7
2018-12-13T02:22:37.646Z,1017.63
2018-12-13T02:23:03.753Z,1017.7
2018-12-13T02:23:29.852Z,1017.68
2018-12-13T02:23:55.957Z,1017.62
2018-12-13T02:24:22.061Z,1017.64
2018-12-13T02:24:48.193Z,1017.67
2018-12-13T02:25:14.303Z,1017.64
2018-12-13T02:25:40.402Z,1017.62
2018-12-13T02:26:06.511Z,1017.64
2018-12-13T02:26:32.613Z,1017.58
2018-12-13T02:26:58.783Z,1017.62
2018-12-13T02:27:24.883Z,1017.59
2018-12-13T02:27:50.999Z,1017.6
2018-12-13T02:28:17.102Z,1017.63
2018-12-13T02:28:43.209Z,1017.58
2018-12-13T02:29:09.309Z,1017.61
2018-12-13T02:29:35.444Z,1017.56
2018-12-13T02:30:01.546Z,1017.59
2018-12-13T02:30:27.675Z,1017.56
2018-12-13T02:30:53.779Z,1017.57
2018-12-13T02:31:19.908Z,1017.56
2018-12-13T02:31:46.049Z,1017.56
2018-12-13T02:32:12.152Z,1017.56
2018-12-13T02:32:38.256Z,1017.58
2018-12-13T02:33:04.358Z,1017.55
2018-12-13T02:33:30.493Z,1017.54
2018-12-13T02:33:56.630Z,1017.6
2018-12-13T02:34:22.742Z,1017.56
2018-12-13T02:34:48.845Z,1017.53
2018-12-13T02:35:14.952Z,1017.58
2018-12-13T02:35:41.094Z,1017.54
2018-12-13T02:36:07.233Z,1017.55
2018-12-13T02:36:33.365Z,1017.54
2018-12-13T02:37:05.717Z,1017.57
2018-12-13T02:37:27.338Z,1017.52
2018-12-13T02:37:53.438Z,1017.61
2018-12-13T02:38:19.541Z,1017.55
2018-12-13T02:38:45.644Z,1017.54
2018-12-13T02:39:11.756Z,1017.54
2018-12-13T02:39:37.863Z,1017.55
2018-12-13T02:40:03.968Z,1017.59
2018-12-13T02:40:30.079Z,1017.6
2018-12-13T02:40:56.179Z,1017.56
2018-12-13T02:41:22.339Z,1017.54
2018-12-13T02:41:48.474Z,1017.56
2018-12-13T02:42:14.582Z,1017.54
2018-12-13T02:42:40.720Z,1017.55
2018-12-13T02:43:06.818Z,1017.52
2018-12-13T02:43:32.946Z,1017.54
2018-12-13T02:43:59.248Z,1017.53
2018-12-13T02:44:25.331Z,1017.54
2018-12-13T02:44:51.439Z,1017.5
2018-12-13T02:45:17.590Z,1017.52
2018-12-13T02:45:43.699Z,1017.49
2018-12-13T02:46:09.802Z,1017.54
2018-12-13T02:46:35.927Z,1017.52
2018-12-13T02:47:02.064Z,1017.51
2018-12-13T02:47:28.219Z,1017.47
2018-12-13T02:47:54.376Z,1017.5
2018-12-13T02:48:20.512Z,1017.51
2018-12-13T02:48:46.643Z,1017.52
2018-12-13T02:49:12.740Z,1017.48
2018-12-13T02:49:38.881Z,1017.45
2018-12-13T02:50:04.991Z,1017.45
2018-12-13T02:50:31.094Z,1017.45
2018-12-13T02:50:57.218Z,1017.46
2018-12-13T02:51:23.356Z,1017.45
2018-12-13T02:51:49.459Z,1017.48
2018-12-13T02:52:15.559Z,1017.43
2018-12-13T02:52:41.690Z,1017.45
2018-12-13T02:53:07.823Z,1017.41
2018-12-13T02:53:33.951Z,1017.45
2018-12-13T02:54:00.103Z,1017.49
2018-12-13T02:54:26.215Z,1017.48
2018-12-13T02:54:52.344Z,1017.46
2018-12-13T02:55:18.475Z,1017.46
2018-12-13T02:55:44.602Z,1017.48
2018-12-13T02:56:10.688Z,1017.42
2018-12-13T02:56:36.790Z,1017.47
2018-12-13T02:57:02.896Z,1017.46
2018-12-13T02:57:29.004Z,1017.44
2018-12-13T02:57:55.107Z,1017.41
2018-12-13T02:58:21.240Z,1017.43
2018-12-13T02:58:47.346Z,1017.49
2018-12-13T02:59:13.474Z,1017.43
2018-12-13T02:59:39.574Z,1017.46
2018-12-13T03:00:05.686Z,1017.43
2018-12-13T03:00:31.803Z,1017.43
2018-12-13T03:00:57.897Z,1017.46
2018-12-13T03:01:23.991Z,1017.45
2018-12-13T03:01:50.099Z,1017.43
2018-12-13T03:02:16.282Z,1017.45
2018-12-13T03:02:42.408Z,1017.43
2018-12-13T03:03:08.573Z,1017.45
2018-12-13T03:03:34.684Z,1017.42
2018-12-13T03:04:00.846Z,1017.44
2018-12-13T03:04:26.978Z,1017.41
2018-12-13T03:04:53.093Z,1017.43
2018-12-13T03:05:19.238Z,1017.48
2018-12-13T03:05:45.346Z,1017.43
2018-12-13T03:06:11.471Z,1017.42
2018-12-13T03:06:37.574Z,1017.42
2018-12-13T03:07:03.683Z,1017.42
2018-12-13T03:07:30.764Z,1017.42
2018-12-13T03:07:56.874Z,1017.41
2018-12-13T03:08:22.993Z,1017.37
2018-12-13T03:08:49.113Z,1017.36
2018-12-13T03:09:15.211Z,1017.4
2018-12-13T03:09:41.320Z,1017.37
2018-12-13T03:10:07.445Z,1017.4
2018-12-13T03:10:33.581Z,1017.41
2018-12-13T03:10:59.709Z,1017.34
2018-12-13T03:11:25.837Z,1017.35
2018-12-13T03:11:51.968Z,1017.34
2018-12-13T03:12:18.067Z,1017.36
2018-12-13T03:12:44.206Z,1017.39
2018-12-13T03:13:10.304Z,1017.37
2018-12-13T03:13:36.430Z,1017.38
2018-12-13T03:14:02.566Z,1017.38
2018-12-13T03:14:28.701Z,1017.38
2018-12-13T03:14:54.803Z,1017.38
2018-12-13T03:15:20.911Z,1017.41
2018-12-13T03:15:47.011Z,1017.36
2018-12-13T03:16:13.120Z,1017.37
2018-12-13T03:16:39.252Z,1017.42
2018-12-13T03:17:05.364Z,1017.38
2018-12-13T03:17:31.459Z,1017.42
2018-12-13T03:17:57.561Z,1017.38
2018-12-13T03:18:23.691Z,1017.43
2018-12-13T03:18:49.801Z,1017.4
2018-12-13T03:19:15.906Z,1017.46
2018-12-13T03:19:42.010Z,1017.43
2018-12-13T03:20:08.140Z,1017.45
2018-12-13T03:20:34.244Z,1017.44
2018-12-13T03:21:00.357Z,1017.45
2018-12-13T03:21:26.456Z,1017.47
2018-12-13T03:21:52.585Z,1017.51
2018-12-13T03:22:18.686Z,1017.5
2018-12-13T03:22:44.792Z,1017.44
2018-12-13T03:23:10.895Z,1017.45
2018-12-13T03:23:37.015Z,1017.47
2018-12-13T03:24:03.131Z,1017.51
2018-12-13T03:24:29.265Z,1017.39
2018-12-13T03:24:55.364Z,1017.45
2018-12-13T03:25:21.473Z,1017.42
2018-12-13T03:25:47.574Z,1017.43
2018-12-13T03:26:13.673Z,1017.44
2018-12-13T03:26:39.807Z,1017.38
2018-12-13T03:27:05.932Z,1017.43
2018-12-13T03:27:32.035Z,1017.35
2018-12-13T03:27:58.202Z,1017.33
2018-12-13T03:28:24.335Z,1017.4
2018-12-13T03:28:50.434Z,1017.36
2018-12-13T03:29:16.586Z,1017.35
2018-12-13T03:29:42.645Z,1017.38
2018-12-13T03:30:08.747Z,1017.4
2018-12-13T03:30:34.906Z,1017.4
2018-12-13T03:31:01.065Z,1017.37
2018-12-13T03:31:27.260Z,1017.35
2018-12-13T03:31:53.395Z,1017.38
2018-12-13T03:32:19.563Z,1017.35
2018-12-13T03:32:45.760Z,1017.36
2018-12-13T03:33:11.911Z,1017.35
2018-12-13T03:33:38.080Z,1017.32
2018-12-13T03:34:04.177Z,1017.35
2018-12-13T03:34:30.280Z,1017.3
2018-12-13T03:34:56.444Z,1017.31
2018-12-13T03:35:22.606Z,1017.3
2018-12-13T03:35:48.698Z,1017.27
2018-12-13T03:36:14.804Z,1017.27
2018-12-13T03:36:40.944Z,1017.29
2018-12-13T03:37:07.132Z,1017.28
2018-12-13T03:37:33.259Z,1017.29
2018-12-13T03:37:59.392Z,1017.3
2018-12-13T03:38:25.660Z,1017.27
2018-12-13T03:38:51.761Z,1017.29
2018-12-13T03:39:17.904Z,1017.28
2018-12-13T03:39:44.062Z,1017.27
2018-12-13T03:40:10.179Z,1017.29
2018-12-13T03:40:36.301Z,1017.29
2018-12-13T03:41:02.412Z,1017.3
2018-12-13T03:41:28.516Z,1017.26
2018-12-13T03:41:54.620Z,1017.23
2018-12-13T03:42:20.726Z,1017.23
2018-12-13T03:42:46.845Z,1017.26
2018-12-13T03:43:12.957Z,1017.28
2018-12-13T03:43:39.058Z,1017.23
2018-12-13T03:44:05.187Z,1017.2
2018-12-13T03:44:31.293Z,1017.22
2018-12-13T03:44:57.427Z,1017.22
2018-12-13T03:45:23.565Z,1017.2
2018-12-13T03:45:49.678Z,1017.18
2018-12-13T03:46:15.778Z,1017.27
2018-12-13T03:46:41.902Z,1017.2
2018-12-13T03:47:08.011Z,1017.2
2018-12-13T03:47:34.122Z,1017.2
2018-12-13T03:48:00.228Z,1017.17
2018-12-13T03:48:26.335Z,1017.19
2018-12-13T03:48:52.438Z,1017.15
2018-12-13T03:49:18.546Z,1017.15
2018-12-13T03:49:44.681Z,1017.2
2018-12-13T03:50:10.784Z,1017.21
2018-12-13T03:50:36.891Z,1017.23
2018-12-13T03:51:02.991Z,1017.25
2018-12-13T03:51:29.122Z,1017.23
2018-12-13T03:51:55.261Z,1017.21
2018-12-13T03:52:21.357Z,1017.21
2018-12-13T03:52:47.489Z,1017.22
2018-12-13T03:53:13.616Z,1017.21
2018-12-13T03:53:39.749Z,1017.22
2018-12-13T03:54:05.886Z,1017.19
2018-12-13T03:54:31.989Z,1017.22
2018-12-13T03:54:58.117Z,1017.21
2018-12-13T03:55:24.219Z,1017.21
2018-12-13T03:55:50.329Z,1017.18
2018-12-13T03:56:16.466Z,1017.21
2018-12-13T03:56:42.566Z,1017.19
2018-12-13T03:57:08.702Z,1017.22
2018-12-13T03:57:34.805Z,1017.19
2018-12-13T03:58:00.948Z,1017.17
2018-12-13T03:58:27.045Z,1017.16
2018-12-13T03:58:53.145Z,1017.22
2018-12-13T03:59:19.367Z,1017.19
2018-12-13T03:59:45.469Z,1017.15
2018-12-13T04:00:11.572Z,1017.13
2018-12-13T04:00:37.681Z,1017.15
2018-12-13T04:01:03.812Z,1017.18
2018-12-13T04:01:29.915Z,1017.15
2018-12-13T04:01:56.016Z,1017.15
2018-12-13T04:02:22.148Z,1017.13
2018-12-13T04:02:48.278Z,1017.12
2018-12-13T04:03:14.418Z,1017.11
2018-12-13T04:03:40.522Z,1017.08
2018-12-13T04:04:06.620Z,1017.1
2018-12-13T04:04:32.780Z,1017.1
2018-12-13T04:04:58.887Z,1017.12
2018-12-13T04:05:24.996Z,1017.13
2018-12-13T04:05:51.094Z,1017.11
2018-12-13T04:06:17.229Z,1017.11
2018-12-13T04:06:43.364Z,1017.11
2018-12-13T04:07:09.469Z,1017.12
2018-12-13T04:07:35.623Z,1017.12
2018-12-13T04:08:01.751Z,1017.11
2018-12-13T04:08:27.856Z,1017.11
2018-12-13T04:08:53.954Z,1017.19
2018-12-13T04:09:20.064Z,1017.08
2018-12-13T04:09:46.162Z,1017.13
2018-12-13T04:10:12.261Z,1017.07
2018-12-13T04:10:38.359Z,1017.08
2018-12-13T04:11:04.499Z,1017.11
2018-12-13T04:11:30.597Z,1017.17
2018-12-13T04:11:56.730Z,1017.1
2018-12-13T04:12:22.863Z,1017.12
2018-12-13T04:12:48.989Z,1017.09
2018-12-13T04:13:15.094Z,1017.11
2018-12-13T04:13:41.200Z,1017.1
2018-12-13T04:14:07.304Z,1017.07
2018-12-13T04:14:33.411Z,1017.13
2018-12-13T04:14:59.515Z,1017.08
2018-12-13T04:15:25.613Z,1017.11
2018-12-13T04:15:51.720Z,1017.05
2018-12-13T04:16:17.844Z,1017.04
2018-12-13T04:16:43.983Z,1017.09
2018-12-13T04:17:10.141Z,1017.04
2018-12-13T04:17:36.287Z,1017.08
2018-12-13T04:18:02.428Z,1017.11
2018-12-13T04:18:28.590Z,1017.09
2018-12-13T04:18:54.690Z,1017.07
2018-12-13T04:19:20.826Z,1017.1
2018-12-13T04:19:46.983Z,1017.05
2018-12-13T04:20:13.122Z,1017.14
2018-12-13T04:20:39.229Z,1017.11
2018-12-13T04:21:05.382Z,1017.1
2018-12-13T04:21:31.501Z,1017.12
2018-12-13T04:21:57.594Z,1017.09
2018-12-13T04:22:23.727Z,1017.08
2018-12-13T04:22:49.855Z,1017.09
2018-12-13T04:23:15.993Z,1017.12
2018-12-13T04:23:42.094Z,1017.06
2018-12-13T04:24:08.197Z,1017.07
2018-12-13T04:24:34.362Z,1017.04
2018-12-13T04:25:00.412Z,1017.07
2018-12-13T04:25:26.506Z,1017.08
2018-12-13T04:25:52.611Z,1017.08
2018-12-13T04:26:18.720Z,1017.07
2018-12-13T04:26:44.821Z,1017.08
2018-12-13T04:27:10.923Z,1017.02
2018-12-13T04:27:37.031Z,1017.04
2018-12-13T04:28:03.136Z,1017.04
2018-12-13T04:28:29.240Z,1017.07
2018-12-13T04:28:55.341Z,1017.08
2018-12-13T04:29:21.478Z,1017.06
2018-12-13T04:29:47.578Z,1017.06
2018-12-13T04:30:13.683Z,1017.05
2018-12-13T04:30:39.787Z,1017.08
2018-12-13T04:31:05.914Z,1017.07
2018-12-13T04:31:32.059Z,1017.06
2018-12-13T04:31:58.193Z,1017.08
2018-12-13T04:32:24.314Z,1017.02
2018-12-13T04:32:50.447Z,1017.04
2018-12-13T04:33:16.614Z,1017.04
2018-12-13T04:33:42.715Z,1016.98
2018-12-13T04:34:08.946Z,1017.04
2018-12-13T04:34:35.046Z,1017.01
2018-12-13T04:35:01.152Z,1017.05
2018-12-13T04:35:27.287Z,1017.02
2018-12-13T04:35:53.421Z,1016.99
2018-12-13T04:36:19.554Z,1017.01
2018-12-13T04:36:45.664Z,1017.02
2018-12-13T04:37:11.767Z,1017.01
2018-12-13T04:37:38.888Z,1017.04
2018-12-13T04:38:05.013Z,1017.04
2018-12-13T04:38:31.152Z,1017.05
2018-12-13T04:38:57.256Z,1017.06
2018-12-13T04:39:23.361Z,1017.04
2018-12-13T04:39:49.465Z,1017.05
2018-12-13T04:40:15.577Z,1017.04
2018-12-13T04:40:41.695Z,1016.99
2018-12-13T04:41:07.840Z,1017.05
2018-12-13T04:41:33.945Z,1017
2018-12-13T04:42:00.043Z,1017.05
2018-12-13T04:42:26.145Z,1017.06
2018-12-13T04:42:52.254Z,1017
2018-12-13T04:43:18.394Z,1017
2018-12-13T04:43:44.490Z,1017
2018-12-13T04:44:10.659Z,1016.98
2018-12-13T04:44:37.875Z,1016.98
2018-12-13T04:45:03.881Z,1017.02
2018-12-13T04:45:29.982Z,1017.05
2018-12-13T04:45:56.090Z,1016.97
2018-12-13T04:46:22.196Z,1017.02
2018-12-13T04:46:48.301Z,1017
2018-12-13T04:47:14.407Z,1017.02
2018-12-13T04:47:40.512Z,1017.04
2018-12-13T04:48:06.614Z,1017.05
2018-12-13T04:48:32.716Z,1016.99
2018-12-13T04:48:58.820Z,1017.01
2018-12-13T04:49:24.933Z,1017.02
2018-12-13T04:49:51.060Z,1017.02
2018-12-13T04:50:17.160Z,1016.96
2018-12-13T04:50:43.304Z,1017.01
2018-12-13T04:51:09.400Z,1017
2018-12-13T04:51:35.507Z,1016.95
2018-12-13T04:52:01.612Z,1016.99
2018-12-13T04:52:27.743Z,1016.94
2018-12-13T04:52:53.878Z,1016.96
2018-12-13T04:53:19.979Z,1016.96
2018-12-13T04:53:46.117Z,1016.97
2018-12-13T04:54:12.270Z,1016.94
2018-12-13T04:54:38.368Z,1016.95
2018-12-13T04:55:04.475Z,1016.93
2018-12-13T04:55:30.578Z,1016.94
2018-12-13T04:55:56.683Z,1016.9
2018-12-13T04:56:22.817Z,1016.89
2018-12-13T04:56:48.918Z,1016.91
2018-12-13T04:57:15.028Z,1016.91
2018-12-13T04:57:41.123Z,1016.87
2018-12-13T04:58:07.233Z,1016.9
2018-12-13T04:58:33.365Z,1016.89
2018-12-13T04:58:59.464Z,1016.92
2018-12-13T04:59:25.577Z,1016.89
2018-12-13T04:59:51.682Z,1016.88
2018-12-13T05:00:17.786Z,1016.93
2018-12-13T05:00:43.901Z,1016.93
2018-12-13T05:01:10.010Z,1016.89
2018-12-13T05:01:36.119Z,1016.92
2018-12-13T05:02:02.223Z,1016.96
2018-12-13T05:02:28.329Z,1016.92
2018-12-13T05:02:54.411Z,1016.89
2018-12-13T05:03:20.513Z,1016.89
2018-12-13T05:03:46.617Z,1016.94
2018-12-13T05:04:12.765Z,1016.94
2018-12-13T05:04:38.863Z,1016.89
2018-12-13T05:05:05.001Z,1016.94
2018-12-13T05:05:31.068Z,1016.9
2018-12-13T05:05:57.184Z,1016.9
2018-12-13T05:06:23.293Z,1016.94
2018-12-13T05:06:49.417Z,1016.92
2018-12-13T05:07:15.507Z,1016.93
2018-12-13T05:07:42.603Z,1016.92
2018-12-13T05:08:08.709Z,1016.89
2018-12-13T05:08:34.805Z,1016.88
2018-12-13T05:09:00.908Z,1016.91
2018-12-13T05:09:27.012Z,1016.94
2018-12-13T05:09:53.134Z,1016.9
2018-12-13T05:10:19.262Z,1016.94
2018-12-13T05:10:45.357Z,1016.92
2018-12-13T05:11:11.458Z,1016.89
2018-12-13T05:11:37.565Z,1016.89
2018-12-13T05:12:03.693Z,1016.89
2018-12-13T05:12:29.798Z,1016.87
2018-12-13T05:12:55.902Z,1016.91
2018-12-13T05:13:22.009Z,1016.9
2018-12-13T05:13:48.118Z,1016.86
2018-12-13T05:14:14.238Z,1016.9
2018-12-13T05:14:40.350Z,1016.89
2018-12-13T05:15:06.482Z,1016.89
2018-12-13T05:15:32.609Z,1016.9
2018-12-13T05:15:58.720Z,1016.91
2018-12-13T05:16:24.824Z,1016.89
2018-12-13T05:16:50.924Z,1016.86
2018-12-13T05:17:17.055Z,1016.87